sensor_id;sensor_type;location;lat;lon;timestamp;P1;durP1;ratioP1;P2;durP2;ratioP2
15358;SDS011;7779;49.596;11.070;2023-08-06T00:02:23;2.60;;;2.40;;
15358;SDS011;7779;49.596;11.070;2023-08-06T00:04:49;3.13;;;2.20;;
15358;SDS011;7779;49.596;11.070;2023-08-06T00:07:15;3.00;;;2.70;;
15358;SDS011;7779;49.596;11.070;2023-08-06T00:09:40;2.50;;;2.30;;
15358;SDS011;7779;49.596;11.070;2023-08-06T00:12:06;3.00;;;2.70;;
15358;SDS011;7779;49.596;11.070;2023-08-06T00:14:32;2.60;;;2.40;;
15358;SDS011;7779;49.596;11.070;2023-08-06T00:16:58;3.07;;;2.77;;
15358;SDS011;7779;49.596;11.070;2023-08-06T00:19:24;2.97;;;2.50;;
15358;SDS011;7779;49.596;11.070;2023-08-06T00:21:50;2.50;;;2.30;;
15358;SDS011;7779;49.596;11.070;2023-08-06T00:24:15;2.50;;;2.30;;
15358;SDS011;7779;49.596;11.070;2023-08-06T00:26:41;2.00;;;1.80;;
15358;SDS011;7779;49.596;11.070;2023-08-06T00:29:07;1.93;;;1.80;;
15358;SDS011;7779;49.596;11.070;2023-08-06T00:31:32;2.00;;;1.80;;
15358;SDS011;7779;49.596;11.070;2023-08-06T00:33:58;2.10;;;1.90;;
15358;SDS011;7779;49.596;11.070;2023-08-06T00:36:24;2.00;;;1.80;;
15358;SDS011;7779;49.596;11.070;2023-08-06T00:38:50;2.07;;;1.87;;
15358;SDS011;7779;49.596;11.070;2023-08-06T00:41:15;2.47;;;1.93;;
15358;SDS011;7779;49.596;11.070;2023-08-06T00:43:41;1.83;;;1.70;;
15358;SDS011;7779;49.596;11.070;2023-08-06T00:46:07;1.90;;;1.80;;
15358;SDS011;7779;49.596;11.070;2023-08-06T00:48:33;2.33;;;1.50;;
15358;SDS011;7779;49.596;11.070;2023-08-06T00:50:58;1.73;;;1.40;;
15358;SDS011;7779;49.596;11.070;2023-08-06T00:53:26;1.63;;;1.50;;
15358;SDS011;7779;49.596;11.070;2023-08-06T00:55:52;1.63;;;1.47;;
15358;SDS011;7779;49.596;11.070;2023-08-06T00:58:18;1.60;;;1.50;;
15358;SDS011;7779;49.596;11.070;2023-08-06T01:00:44;1.70;;;1.60;;
15358;SDS011;7779;49.596;11.070;2023-08-06T01:03:10;1.63;;;1.53;;
15358;SDS011;7779;49.596;11.070;2023-08-06T01:05:36;1.67;;;1.57;;
15358;SDS011;7779;49.596;11.070;2023-08-06T01:08:27;1.73;;;1.63;;
15358;SDS011;7779;49.596;11.070;2023-08-06T01:17:11;1.77;;;1.60;;
15358;SDS011;7779;49.596;11.070;2023-08-06T01:19:39;2.23;;;1.47;;
15358;SDS011;7779;49.596;11.070;2023-08-06T01:22:04;1.57;;;1.47;;
15358;SDS011;7779;49.596;11.070;2023-08-06T01:24:31;1.70;;;1.60;;
15358;SDS011;7779;49.596;11.070;2023-08-06T01:27:00;1.80;;;1.70;;
15358;SDS011;7779;49.596;11.070;2023-08-06T01:29:44;1.60;;;1.50;;
15358;SDS011;7779;49.596;11.070;2023-08-06T01:32:16;2.27;;;1.60;;
15358;SDS011;7779;49.596;11.070;2023-08-06T01:34:44;1.93;;;1.70;;
15358;SDS011;7779;49.596;11.070;2023-08-06T01:37:12;1.53;;;1.43;;
15358;SDS011;7779;49.596;11.070;2023-08-06T01:39:39;1.50;;;1.40;;
15358;SDS011;7779;49.596;11.070;2023-08-06T01:42:08;1.77;;;1.53;;
15358;SDS011;7779;49.596;11.070;2023-08-06T01:44:34;2.37;;;1.50;;
15358;SDS011;7779;49.596;11.070;2023-08-06T01:47:00;1.60;;;1.50;;
15358;SDS011;7779;49.596;11.070;2023-08-06T01:49:25;1.40;;;1.30;;
15358;SDS011;7779;49.596;11.070;2023-08-06T01:51:52;2.40;;;1.50;;
15358;SDS011;7779;49.596;11.070;2023-08-06T01:54:18;2.17;;;1.40;;
15358;SDS011;7779;49.596;11.070;2023-08-06T01:56:44;1.60;;;1.50;;
15358;SDS011;7779;49.596;11.070;2023-08-06T01:59:10;2.13;;;1.30;;
15358;SDS011;7779;49.596;11.070;2023-08-06T02:01:35;1.97;;;1.43;;
15358;SDS011;7779;49.596;11.070;2023-08-06T02:04:01;1.40;;;1.30;;
15358;SDS011;7779;49.596;11.070;2023-08-06T02:06:27;1.50;;;1.40;;
15358;SDS011;7779;49.596;11.070;2023-08-06T02:08:54;2.80;;;1.30;;
15358;SDS011;7779;49.596;11.070;2023-08-06T02:11:19;1.40;;;1.30;;
15358;SDS011;7779;49.596;11.070;2023-08-06T02:13:45;1.30;;;1.10;;
15358;SDS011;7779;49.596;11.070;2023-08-06T02:16:17;1.33;;;1.20;;
15358;SDS011;7779;49.596;11.070;2023-08-06T02:18:42;1.30;;;1.20;;
15358;SDS011;7779;49.596;11.070;2023-08-06T02:21:08;1.40;;;1.30;;
15358;SDS011;7779;49.596;11.070;2023-08-06T02:23:34;1.40;;;1.20;;
15358;SDS011;7779;49.596;11.070;2023-08-06T02:26:03;2.73;;;1.20;;
15358;SDS011;7779;49.596;11.070;2023-08-06T02:28:30;1.77;;;1.47;;
15358;SDS011;7779;49.596;11.070;2023-08-06T02:30:56;1.47;;;1.30;;
15358;SDS011;7779;49.596;11.070;2023-08-06T02:33:23;1.63;;;1.33;;
15358;SDS011;7779;49.596;11.070;2023-08-06T02:35:48;1.60;;;1.20;;
15358;SDS011;7779;49.596;11.070;2023-08-06T02:38:15;1.63;;;1.40;;
15358;SDS011;7779;49.596;11.070;2023-08-06T02:40:44;1.70;;;1.40;;
15358;SDS011;7779;49.596;11.070;2023-08-06T02:43:11;1.47;;;1.37;;
15358;SDS011;7779;49.596;11.070;2023-08-06T02:45:38;1.60;;;1.50;;
15358;SDS011;7779;49.596;11.070;2023-08-06T02:48:04;2.07;;;1.30;;
15358;SDS011;7779;49.596;11.070;2023-08-06T02:50:31;1.50;;;1.40;;
15358;SDS011;7779;49.596;11.070;2023-08-06T02:53:02;1.60;;;1.50;;
15358;SDS011;7779;49.596;11.070;2023-08-06T02:55:28;1.87;;;1.73;;
15358;SDS011;7779;49.596;11.070;2023-08-06T02:57:53;1.63;;;1.53;;
15358;SDS011;7779;49.596;11.070;2023-08-06T03:00:19;1.60;;;1.50;;
15358;SDS011;7779;49.596;11.070;2023-08-06T03:02:45;1.13;;;1.03;;
15358;SDS011;7779;49.596;11.070;2023-08-06T03:05:27;1.50;;;1.40;;
15358;SDS011;7779;49.596;11.070;2023-08-06T03:07:53;1.80;;;1.70;;
15358;SDS011;7779;49.596;11.070;2023-08-06T03:10:23;1.23;;;1.13;;
15358;SDS011;7779;49.596;11.070;2023-08-06T03:12:51;1.10;;;1.10;;
15358;SDS011;7779;49.596;11.070;2023-08-06T03:15:18;1.30;;;1.20;;
15358;SDS011;7779;49.596;11.070;2023-08-06T03:17:45;1.50;;;1.40;;
15358;SDS011;7779;49.596;11.070;2023-08-06T03:20:11;1.47;;;1.37;;
15358;SDS011;7779;49.596;11.070;2023-08-06T03:22:37;2.13;;;1.30;;
15358;SDS011;7779;49.596;11.070;2023-08-06T03:25:03;1.30;;;1.20;;
15358;SDS011;7779;49.596;11.070;2023-08-06T03:27:29;1.30;;;1.20;;
15358;SDS011;7779;49.596;11.070;2023-08-06T03:29:55;1.87;;;1.50;;
15358;SDS011;7779;49.596;11.070;2023-08-06T03:32:24;1.50;;;1.40;;
15358;SDS011;7779;49.596;11.070;2023-08-06T03:34:51;2.57;;;1.50;;
15358;SDS011;7779;49.596;11.070;2023-08-06T03:37:18;1.40;;;1.30;;
15358;SDS011;7779;49.596;11.070;2023-08-06T03:39:44;1.50;;;1.40;;
15358;SDS011;7779;49.596;11.070;2023-08-06T03:42:10;1.50;;;1.40;;
15358;SDS011;7779;49.596;11.070;2023-08-06T03:44:36;1.40;;;1.30;;
15358;SDS011;7779;49.596;11.070;2023-08-06T03:47:02;2.17;;;1.50;;
15358;SDS011;7779;49.596;11.070;2023-08-06T03:49:28;1.63;;;1.30;;
15358;SDS011;7779;49.596;11.070;2023-08-06T03:51:54;1.33;;;1.23;;
15358;SDS011;7779;49.596;11.070;2023-08-06T03:54:19;1.60;;;1.50;;
15358;SDS011;7779;49.596;11.070;2023-08-06T03:56:45;2.63;;;1.57;;
15358;SDS011;7779;49.596;11.070;2023-08-06T03:59:11;1.63;;;1.30;;
15358;SDS011;7779;49.596;11.070;2023-08-06T04:01:36;1.40;;;1.30;;
15358;SDS011;7779;49.596;11.070;2023-08-06T04:04:02;1.60;;;1.50;;
15358;SDS011;7779;49.596;11.070;2023-08-06T04:06:28;1.40;;;1.30;;
15358;SDS011;7779;49.596;11.070;2023-08-06T04:08:54;1.80;;;1.40;;
15358;SDS011;7779;49.596;11.070;2023-08-06T04:11:19;1.57;;;1.30;;
15358;SDS011;7779;49.596;11.070;2023-08-06T04:13:45;2.20;;;1.37;;
15358;SDS011;7779;49.596;11.070;2023-08-06T04:16:11;1.60;;;1.50;;
15358;SDS011;7779;49.596;11.070;2023-08-06T04:18:37;1.60;;;1.50;;
15358;SDS011;7779;49.596;11.070;2023-08-06T04:21:03;1.77;;;1.50;;
15358;SDS011;7779;49.596;11.070;2023-08-06T04:23:28;1.57;;;1.47;;
15358;SDS011;7779;49.596;11.070;2023-08-06T04:25:58;1.90;;;1.30;;
15358;SDS011;7779;49.596;11.070;2023-08-06T04:28:28;1.80;;;1.50;;
15358;SDS011;7779;49.596;11.070;2023-08-06T04:30:53;1.67;;;1.57;;
15358;SDS011;7779;49.596;11.070;2023-08-06T04:33:22;1.83;;;1.43;;
15358;SDS011;7779;49.596;11.070;2023-08-06T04:35:53;1.60;;;1.50;;
15358;SDS011;7779;49.596;11.070;2023-08-06T04:38:23;1.73;;;1.50;;
15358;SDS011;7779;49.596;11.070;2023-08-06T04:40:53;1.80;;;1.70;;
15358;SDS011;7779;49.596;11.070;2023-08-06T04:43:20;2.00;;;1.70;;
15358;SDS011;7779;49.596;11.070;2023-08-06T04:45:46;1.70;;;1.60;;
15358;SDS011;7779;49.596;11.070;2023-08-06T04:48:16;1.50;;;1.40;;
15358;SDS011;7779;49.596;11.070;2023-08-06T04:50:46;1.83;;;1.73;;
15358;SDS011;7779;49.596;11.070;2023-08-06T04:53:14;2.63;;;1.63;;
15358;SDS011;7779;49.596;11.070;2023-08-06T04:55:40;1.40;;;1.30;;
15358;SDS011;7779;49.596;11.070;2023-08-06T04:58:06;3.27;;;1.63;;
15358;SDS011;7779;49.596;11.070;2023-08-06T05:00:35;1.50;;;1.40;;
15358;SDS011;7779;49.596;11.070;2023-08-06T05:03:01;4.03;;;1.50;;
15358;SDS011;7779;49.596;11.070;2023-08-06T05:05:27;1.93;;;1.73;;
15358;SDS011;7779;49.596;11.070;2023-08-06T05:07:54;3.77;;;1.87;;
15358;SDS011;7779;49.596;11.070;2023-08-06T05:10:24;1.60;;;1.50;;
15358;SDS011;7779;49.596;11.070;2023-08-06T05:12:51;1.80;;;1.50;;
15358;SDS011;7779;49.596;11.070;2023-08-06T05:15:16;1.80;;;1.67;;
15358;SDS011;7779;49.596;11.070;2023-08-06T05:17:42;1.37;;;1.27;;
15358;SDS011;7779;49.596;11.070;2023-08-06T05:20:08;1.60;;;1.50;;
15358;SDS011;7779;49.596;11.070;2023-08-06T05:22:35;1.77;;;1.60;;
15358;SDS011;7779;49.596;11.070;2023-08-06T05:25:01;1.90;;;1.40;;
15358;SDS011;7779;49.596;11.070;2023-08-06T05:27:27;1.70;;;1.60;;
15358;SDS011;7779;49.596;11.070;2023-08-06T05:29:54;3.33;;;1.97;;
15358;SDS011;7779;49.596;11.070;2023-08-06T05:32:24;2.60;;;1.67;;
15358;SDS011;7779;49.596;11.070;2023-08-06T05:34:49;1.80;;;1.70;;
15358;SDS011;7779;49.596;11.070;2023-08-06T05:37:15;2.70;;;1.63;;
15358;SDS011;7779;49.596;11.070;2023-08-06T05:39:41;4.20;;;1.73;;
15358;SDS011;7779;49.596;11.070;2023-08-06T05:42:07;2.07;;;1.80;;
15358;SDS011;7779;49.596;11.070;2023-08-06T05:44:32;1.77;;;1.60;;
15358;SDS011;7779;49.596;11.070;2023-08-06T05:46:58;2.30;;;1.80;;
15358;SDS011;7779;49.596;11.070;2023-08-06T05:49:24;1.80;;;1.70;;
15358;SDS011;7779;49.596;11.070;2023-08-06T05:51:50;1.87;;;1.67;;
15358;SDS011;7779;49.596;11.070;2023-08-06T05:54:18;1.60;;;1.50;;
15358;SDS011;7779;49.596;11.070;2023-08-06T05:56:44;1.67;;;1.57;;
15358;SDS011;7779;49.596;11.070;2023-08-06T05:59:10;2.87;;;1.90;;
15358;SDS011;7779;49.596;11.070;2023-08-06T06:01:35;2.03;;;1.83;;
15358;SDS011;7779;49.596;11.070;2023-08-06T06:04:01;2.23;;;1.60;;
15358;SDS011;7779;49.596;11.070;2023-08-06T06:06:27;2.17;;;1.60;;
15358;SDS011;7779;49.596;11.070;2023-08-06T06:08:53;1.80;;;1.53;;
15358;SDS011;7779;49.596;11.070;2023-08-06T06:11:18;2.00;;;1.70;;
15358;SDS011;7779;49.596;11.070;2023-08-06T06:13:47;1.60;;;1.50;;
15358;SDS011;7779;49.596;11.070;2023-08-06T06:16:16;1.60;;;1.50;;
15358;SDS011;7779;49.596;11.070;2023-08-06T06:18:42;1.43;;;1.33;;
15358;SDS011;7779;49.596;11.070;2023-08-06T06:21:07;1.73;;;1.53;;
15358;SDS011;7779;49.596;11.070;2023-08-06T06:23:33;2.60;;;1.60;;
15358;SDS011;7779;49.596;11.070;2023-08-06T06:25:59;1.60;;;1.50;;
15358;SDS011;7779;49.596;11.070;2023-08-06T06:28:24;2.07;;;1.80;;
15358;SDS011;7779;49.596;11.070;2023-08-06T06:30:51;1.97;;;1.40;;
15358;SDS011;7779;49.596;11.070;2023-08-06T06:33:17;2.00;;;1.77;;
15358;SDS011;7779;49.596;11.070;2023-08-06T06:35:42;1.80;;;1.70;;
15358;SDS011;7779;49.596;11.070;2023-08-06T06:38:09;1.80;;;1.70;;
15358;SDS011;7779;49.596;11.070;2023-08-06T06:40:35;2.27;;;1.77;;
15358;SDS011;7779;49.596;11.070;2023-08-06T06:43:01;1.70;;;1.60;;
15358;SDS011;7779;49.596;11.070;2023-08-06T06:45:26;2.23;;;1.70;;
15358;SDS011;7779;49.596;11.070;2023-08-06T06:47:52;2.00;;;1.80;;
15358;SDS011;7779;49.596;11.070;2023-08-06T06:50:18;1.70;;;1.60;;
15358;SDS011;7779;49.596;11.070;2023-08-06T06:52:44;1.90;;;1.70;;
15358;SDS011;7779;49.596;11.070;2023-08-06T06:55:09;2.13;;;1.50;;
15358;SDS011;7779;49.596;11.070;2023-08-06T06:57:35;1.87;;;1.70;;
15358;SDS011;7779;49.596;11.070;2023-08-06T07:00:00;2.00;;;1.77;;
15358;SDS011;7779;49.596;11.070;2023-08-06T07:02:26;1.90;;;1.63;;
15358;SDS011;7779;49.596;11.070;2023-08-06T07:04:52;1.50;;;1.40;;
15358;SDS011;7779;49.596;11.070;2023-08-06T07:07:18;1.60;;;1.50;;
15358;SDS011;7779;49.596;11.070;2023-08-06T07:09:44;1.60;;;1.50;;
15358;SDS011;7779;49.596;11.070;2023-08-06T07:12:09;3.67;;;1.70;;
15358;SDS011;7779;49.596;11.070;2023-08-06T07:14:35;1.80;;;1.57;;
15358;SDS011;7779;49.596;11.070;2023-08-06T07:17:01;2.43;;;1.60;;
15358;SDS011;7779;49.596;11.070;2023-08-06T07:19:27;1.67;;;1.57;;
15358;SDS011;7779;49.596;11.070;2023-08-06T07:21:53;1.90;;;1.57;;
15358;SDS011;7779;49.596;11.070;2023-08-06T07:24:18;1.90;;;1.60;;
15358;SDS011;7779;49.596;11.070;2023-08-06T07:26:44;2.27;;;1.70;;
15358;SDS011;7779;49.596;11.070;2023-08-06T07:29:10;1.90;;;1.70;;
15358;SDS011;7779;49.596;11.070;2023-08-06T07:31:36;2.00;;;1.53;;
15358;SDS011;7779;49.596;11.070;2023-08-06T07:34:01;1.73;;;1.63;;
15358;SDS011;7779;49.596;11.070;2023-08-06T07:36:27;1.67;;;1.57;;
15358;SDS011;7779;49.596;11.070;2023-08-06T07:38:53;1.60;;;1.40;;
15358;SDS011;7779;49.596;11.070;2023-08-06T07:41:24;1.60;;;1.50;;
15358;SDS011;7779;49.596;11.070;2023-08-06T07:43:50;2.07;;;1.47;;
15358;SDS011;7779;49.596;11.070;2023-08-06T07:46:16;2.17;;;1.50;;
15358;SDS011;7779;49.596;11.070;2023-08-06T07:48:41;1.93;;;1.70;;
15358;SDS011;7779;49.596;11.070;2023-08-06T07:51:07;2.10;;;1.87;;
15358;SDS011;7779;49.596;11.070;2023-08-06T07:53:33;2.77;;;1.73;;
15358;SDS011;7779;49.596;11.070;2023-08-06T07:55:58;1.77;;;1.67;;
15358;SDS011;7779;49.596;11.070;2023-08-06T07:58:27;5.30;;;1.80;;
15358;SDS011;7779;49.596;11.070;2023-08-06T08:00:54;1.70;;;1.60;;
15358;SDS011;7779;49.596;11.070;2023-08-06T08:03:20;1.80;;;1.70;;
15358;SDS011;7779;49.596;11.070;2023-08-06T08:05:45;1.73;;;1.50;;
15358;SDS011;7779;49.596;11.070;2023-08-06T08:08:11;1.70;;;1.60;;
15358;SDS011;7779;49.596;11.070;2023-08-06T08:10:37;1.97;;;1.77;;
15358;SDS011;7779;49.596;11.070;2023-08-06T08:13:04;1.90;;;1.67;;
15358;SDS011;7779;49.596;11.070;2023-08-06T08:15:30;1.80;;;1.70;;
15358;SDS011;7779;49.596;11.070;2023-08-06T08:17:57;2.07;;;1.63;;
15358;SDS011;7779;49.596;11.070;2023-08-06T08:20:23;1.80;;;1.70;;
15358;SDS011;7779;49.596;11.070;2023-08-06T08:22:49;1.30;;;1.20;;
15358;SDS011;7779;49.596;11.070;2023-08-06T08:25:15;1.47;;;1.27;;
15358;SDS011;7779;49.596;11.070;2023-08-06T08:27:41;1.50;;;1.00;;
15358;SDS011;7779;49.596;11.070;2023-08-06T08:30:07;0.90;;;0.90;;
15358;SDS011;7779;49.596;11.070;2023-08-06T08:32:33;1.27;;;0.97;;
15358;SDS011;7779;49.596;11.070;2023-08-06T08:34:59;0.70;;;0.70;;
15358;SDS011;7779;49.596;11.070;2023-08-06T08:37:25;0.70;;;0.70;;
15358;SDS011;7779;49.596;11.070;2023-08-06T08:39:50;0.50;;;0.50;;
15358;SDS011;7779;49.596;11.070;2023-08-06T08:42:17;0.43;;;0.40;;
15358;SDS011;7779;49.596;11.070;2023-08-06T08:44:43;0.57;;;0.50;;
15358;SDS011;7779;49.596;11.070;2023-08-06T08:47:10;0.80;;;0.57;;
15358;SDS011;7779;49.596;11.070;2023-08-06T08:49:36;0.40;;;0.30;;
15358;SDS011;7779;49.596;11.070;2023-08-06T08:52:03;0.47;;;0.30;;
15358;SDS011;7779;49.596;11.070;2023-08-06T08:54:33;0.30;;;0.30;;
15358;SDS011;7779;49.596;11.070;2023-08-06T08:57:00;0.57;;;0.20;;
15358;SDS011;7779;49.596;11.070;2023-08-06T08:59:26;0.33;;;0.20;;
15358;SDS011;7779;49.596;11.070;2023-08-06T09:01:52;0.20;;;0.20;;
15358;SDS011;7779;49.596;11.070;2023-08-06T09:04:19;0.47;;;0.27;;
15358;SDS011;7779;49.596;11.070;2023-08-06T09:06:50;1.60;;;0.10;;
15358;SDS011;7779;49.596;11.070;2023-08-06T09:09:19;0.20;;;0.10;;
15358;SDS011;7779;49.596;11.070;2023-08-06T09:11:53;0.30;;;0.20;;
15358;SDS011;7779;49.596;11.070;2023-08-06T09:14:26;0.20;;;0.20;;
15358;SDS011;7779;49.596;11.070;2023-08-06T09:16:52;0.10;;;0.10;;
15358;SDS011;7779;49.596;11.070;2023-08-06T09:19:17;0.43;;;0.20;;
15358;SDS011;7779;49.596;11.070;2023-08-06T09:21:45;0.20;;;0.20;;
15358;SDS011;7779;49.596;11.070;2023-08-06T09:24:14;0.20;;;0.20;;
15358;SDS011;7779;49.596;11.070;2023-08-06T09:26:41;0.73;;;0.20;;
15358;SDS011;7779;49.596;11.070;2023-08-06T09:29:09;0.10;;;0.10;;
15358;SDS011;7779;49.596;11.070;2023-08-06T09:34:20;0.80;;;0.23;;
15358;SDS011;7779;49.596;11.070;2023-08-06T09:36:51;1.20;;;0.20;;
15358;SDS011;7779;49.596;11.070;2023-08-06T09:39:22;0.30;;;0.10;;
15358;SDS011;7779;49.596;11.070;2023-08-06T09:41:56;0.10;;;0.10;;
15358;SDS011;7779;49.596;11.070;2023-08-06T09:44:24;0.53;;;0.17;;
15358;SDS011;7779;49.596;11.070;2023-08-06T09:46:56;0.33;;;0.10;;
15358;SDS011;7779;49.596;11.070;2023-08-06T09:49:28;0.30;;;0.30;;
15358;SDS011;7779;49.596;11.070;2023-08-06T09:52:16;0.83;;;0.10;;
15358;SDS011;7779;49.596;11.070;2023-08-06T09:54:43;1.20;;;0.10;;
15358;SDS011;7779;49.596;11.070;2023-08-06T09:57:11;0.10;;;0.10;;
15358;SDS011;7779;49.596;11.070;2023-08-06T09:59:37;0.10;;;0.10;;
15358;SDS011;7779;49.596;11.070;2023-08-06T10:02:07;0.30;;;0.20;;
15358;SDS011;7779;49.596;11.070;2023-08-06T10:04:39;0.10;;;0.10;;
15358;SDS011;7779;49.596;11.070;2023-08-06T10:07:05;0.40;;;0.17;;
15358;SDS011;7779;49.596;11.070;2023-08-06T10:09:32;0.37;;;0.17;;
15358;SDS011;7779;49.596;11.070;2023-08-06T10:11:57;0.10;;;0.10;;
15358;SDS011;7779;49.596;11.070;2023-08-06T10:14:25;0.60;;;0.20;;
15358;SDS011;7779;49.596;11.070;2023-08-06T10:17:02;0.37;;;0.10;;
15358;SDS011;7779;49.596;11.070;2023-08-06T10:19:29;0.43;;;0.10;;
15358;SDS011;7779;49.596;11.070;2023-08-06T10:24:53;0.20;;;0.20;;
15358;SDS011;7779;49.596;11.070;2023-08-06T10:27:21;0.10;;;0.10;;
15358;SDS011;7779;49.596;11.070;2023-08-06T10:32:50;0.10;;;0.10;;
15358;SDS011;7779;49.596;11.070;2023-08-06T10:35:31;0.20;;;0.20;;
15358;SDS011;7779;49.596;11.070;2023-08-06T10:38:15;0.30;;;0.30;;
15358;SDS011;7779;49.596;11.070;2023-08-06T10:41:00;0.27;;;0.27;;
15358;SDS011;7779;49.596;11.070;2023-08-06T10:43:28;0.20;;;0.20;;
15358;SDS011;7779;49.596;11.070;2023-08-06T10:46:03;0.10;;;0.10;;
15358;SDS011;7779;49.596;11.070;2023-08-06T10:48:35;0.20;;;0.20;;
15358;SDS011;7779;49.596;11.070;2023-08-06T10:51:11;0.10;;;0.10;;
15358;SDS011;7779;49.596;11.070;2023-08-06T10:53:42;0.10;;;0.10;;
15358;SDS011;7779;49.596;11.070;2023-08-06T10:56:12;0.20;;;0.20;;
15358;SDS011;7779;49.596;11.070;2023-08-06T10:58:39;0.30;;;0.27;;
15358;SDS011;7779;49.596;11.070;2023-08-06T11:01:05;0.10;;;0.10;;
15358;SDS011;7779;49.596;11.070;2023-08-06T11:03:32;0.10;;;0.10;;
15358;SDS011;7779;49.596;11.070;2023-08-06T11:05:59;0.30;;;0.10;;
15358;SDS011;7779;49.596;11.070;2023-08-06T11:08:33;0.10;;;0.10;;
15358;SDS011;7779;49.596;11.070;2023-08-06T11:11:08;0.10;;;0.10;;
15358;SDS011;7779;49.596;11.070;2023-08-06T11:13:47;0.10;;;0.10;;
15358;SDS011;7779;49.596;11.070;2023-08-06T11:16:16;0.20;;;0.10;;
15358;SDS011;7779;49.596;11.070;2023-08-06T11:18:44;0.10;;;0.10;;
15358;SDS011;7779;49.596;11.070;2023-08-06T11:21:10;0.20;;;0.20;;
15358;SDS011;7779;49.596;11.070;2023-08-06T11:23:40;0.20;;;0.20;;
15358;SDS011;7779;49.596;11.070;2023-08-06T11:26:06;0.30;;;0.20;;
15358;SDS011;7779;49.596;11.070;2023-08-06T11:28:32;0.10;;;0.10;;
15358;SDS011;7779;49.596;11.070;2023-08-06T11:30:58;0.10;;;0.10;;
15358;SDS011;7779;49.596;11.070;2023-08-06T11:33:27;0.03;;;0.03;;
15358;SDS011;7779;49.596;11.070;2023-08-06T11:35:57;0.10;;;0.10;;
15358;SDS011;7779;49.596;11.070;2023-08-06T11:38:27;0.20;;;0.20;;
15358;SDS011;7779;49.596;11.070;2023-08-06T11:40:53;0.13;;;0.10;;
15358;SDS011;7779;49.596;11.070;2023-08-06T11:43:20;0.10;;;0.10;;
15358;SDS011;7779;49.596;11.070;2023-08-06T11:45:47;0.10;;;0.10;;
15358;SDS011;7779;49.596;11.070;2023-08-06T11:48:18;0.10;;;0.10;;
15358;SDS011;7779;49.596;11.070;2023-08-06T11:50:44;0.20;;;0.10;;
15358;SDS011;7779;49.596;11.070;2023-08-06T11:53:12;0.20;;;0.03;;
15358;SDS011;7779;49.596;11.070;2023-08-06T11:55:39;0.10;;;0.10;;
15358;SDS011;7779;49.596;11.070;2023-08-06T11:58:06;0.20;;;0.10;;
15358;SDS011;7779;49.596;11.070;2023-08-06T12:00:32;0.83;;;0.10;;
15358;SDS011;7779;49.596;11.070;2023-08-06T12:02:58;1.13;;;0.20;;
15358;SDS011;7779;49.596;11.070;2023-08-06T12:05:28;0.27;;;0.10;;
15358;SDS011;7779;49.596;11.070;2023-08-06T12:07:57;0.17;;;0.17;;
15358;SDS011;7779;49.596;11.070;2023-08-06T12:10:24;0.20;;;0.20;;
15358;SDS011;7779;49.596;11.070;2023-08-06T12:12:52;0.10;;;0.10;;
15358;SDS011;7779;49.596;11.070;2023-08-06T12:15:18;0.10;;;0.10;;
15358;SDS011;7779;49.596;11.070;2023-08-06T12:17:45;0.20;;;0.20;;
15358;SDS011;7779;49.596;11.070;2023-08-06T12:20:11;0.10;;;0.10;;
15358;SDS011;7779;49.596;11.070;2023-08-06T12:22:37;0.17;;;0.17;;
15358;SDS011;7779;49.596;11.070;2023-08-06T12:27:40;0.10;;;0.10;;
15358;SDS011;7779;49.596;11.070;2023-08-06T12:30:08;0.13;;;0.13;;
15358;SDS011;7779;49.596;11.070;2023-08-06T12:32:35;0.17;;;0.13;;
15358;SDS011;7779;49.596;11.070;2023-08-06T12:35:01;0.47;;;0.10;;
15358;SDS011;7779;49.596;11.070;2023-08-06T12:37:28;0.10;;;0.10;;
15358;SDS011;7779;49.596;11.070;2023-08-06T12:39:54;0.03;;;0.03;;
15358;SDS011;7779;49.596;11.070;2023-08-06T12:42:20;0.80;;;0.10;;
15358;SDS011;7779;49.596;11.070;2023-08-06T12:44:45;1.47;;;0.30;;
15358;SDS011;7779;49.596;11.070;2023-08-06T12:47:15;0.20;;;0.20;;
15358;SDS011;7779;49.596;11.070;2023-08-06T12:49:42;0.10;;;0.10;;
15358;SDS011;7779;49.596;11.070;2023-08-06T12:52:08;0.10;;;0.00;;
15358;SDS011;7779;49.596;11.070;2023-08-06T12:54:34;0.00;;;0.00;;
15358;SDS011;7779;49.596;11.070;2023-08-06T12:57:04;0.10;;;0.10;;
15358;SDS011;7779;49.596;11.070;2023-08-06T12:59:30;0.77;;;0.10;;
15358;SDS011;7779;49.596;11.070;2023-08-06T13:01:58;0.10;;;0.10;;
15358;SDS011;7779;49.596;11.070;2023-08-06T13:04:24;0.00;;;0.00;;
15358;SDS011;7779;49.596;11.070;2023-08-06T13:06:50;0.20;;;0.10;;
15358;SDS011;7779;49.596;11.070;2023-08-06T13:09:16;0.30;;;0.23;;
15358;SDS011;7779;49.596;11.070;2023-08-06T13:11:42;0.17;;;0.17;;
15358;SDS011;7779;49.596;11.070;2023-08-06T13:14:11;0.10;;;0.10;;
15358;SDS011;7779;49.596;11.070;2023-08-06T13:16:40;0.40;;;0.10;;
15358;SDS011;7779;49.596;11.070;2023-08-06T13:19:08;0.30;;;0.10;;
15358;SDS011;7779;49.596;11.070;2023-08-06T13:21:35;0.03;;;0.03;;
15358;SDS011;7779;49.596;11.070;2023-08-06T13:24:09;0.43;;;0.10;;
15358;SDS011;7779;49.596;11.070;2023-08-06T13:26:35;0.53;;;0.00;;
15358;SDS011;7779;49.596;11.070;2023-08-06T13:29:01;0.57;;;0.10;;
15358;SDS011;7779;49.596;11.070;2023-08-06T13:31:27;0.10;;;0.10;;
15358;SDS011;7779;49.596;11.070;2023-08-06T13:33:54;0.00;;;0.00;;
15358;SDS011;7779;49.596;11.070;2023-08-06T13:36:22;0.07;;;0.00;;
15358;SDS011;7779;49.596;11.070;2023-08-06T13:38:51;0.00;;;0.00;;
15358;SDS011;7779;49.596;11.070;2023-08-06T13:41:17;0.10;;;0.00;;
15358;SDS011;7779;49.596;11.070;2023-08-06T13:43:43;0.07;;;0.00;;
15358;SDS011;7779;49.596;11.070;2023-08-06T13:46:12;0.00;;;0.00;;
15358;SDS011;7779;49.596;11.070;2023-08-06T13:48:45;0.30;;;0.10;;
15358;SDS011;7779;49.596;11.070;2023-08-06T13:51:13;0.07;;;0.00;;
15358;SDS011;7779;49.596;11.070;2023-08-06T13:53:39;0.00;;;0.00;;
15358;SDS011;7779;49.596;11.070;2023-08-06T13:56:05;0.10;;;0.10;;
15358;SDS011;7779;49.596;11.070;2023-08-06T13:58:32;0.00;;;0.00;;
15358;SDS011;7779;49.596;11.070;2023-08-06T14:00:58;0.00;;;0.00;;
15358;SDS011;7779;49.596;11.070;2023-08-06T14:03:24;1.93;;;0.03;;
15358;SDS011;7779;49.596;11.070;2023-08-06T14:05:50;0.00;;;0.00;;
15358;SDS011;7779;49.596;11.070;2023-08-06T14:08:16;0.00;;;0.00;;
15358;SDS011;7779;49.596;11.070;2023-08-06T14:10:45;0.10;;;0.10;;
15358;SDS011;7779;49.596;11.070;2023-08-06T14:13:10;0.00;;;0.00;;
15358;SDS011;7779;49.596;11.070;2023-08-06T14:15:37;0.00;;;0.00;;
15358;SDS011;7779;49.596;11.070;2023-08-06T14:18:06;0.00;;;0.00;;
15358;SDS011;7779;49.596;11.070;2023-08-06T14:20:35;0.00;;;0.00;;
15358;SDS011;7779;49.596;11.070;2023-08-06T14:23:01;0.00;;;0.00;;
15358;SDS011;7779;49.596;11.070;2023-08-06T14:25:27;2.00;;;0.10;;
15358;SDS011;7779;49.596;11.070;2023-08-06T14:27:52;0.00;;;0.00;;
15358;SDS011;7779;49.596;11.070;2023-08-06T14:30:18;0.47;;;0.00;;
15358;SDS011;7779;49.596;11.070;2023-08-06T14:32:44;0.00;;;0.00;;
15358;SDS011;7779;49.596;11.070;2023-08-06T14:35:10;0.20;;;0.10;;
15358;SDS011;7779;49.596;11.070;2023-08-06T14:37:36;0.10;;;0.10;;
15358;SDS011;7779;49.596;11.070;2023-08-06T14:40:02;0.30;;;0.07;;
15358;SDS011;7779;49.596;11.070;2023-08-06T14:42:28;0.10;;;0.10;;
15358;SDS011;7779;49.596;11.070;2023-08-06T14:44:54;0.33;;;0.10;;
15358;SDS011;7779;49.596;11.070;2023-08-06T14:47:19;0.20;;;0.20;;
15358;SDS011;7779;49.596;11.070;2023-08-06T14:49:45;0.57;;;0.10;;
15358;SDS011;7779;49.596;11.070;2023-08-06T14:52:11;0.20;;;0.20;;
15358;SDS011;7779;49.596;11.070;2023-08-06T14:54:36;0.40;;;0.10;;
15358;SDS011;7779;49.596;11.070;2023-08-06T14:57:02;0.00;;;0.00;;
15358;SDS011;7779;49.596;11.070;2023-08-06T14:59:28;0.37;;;0.20;;
15358;SDS011;7779;49.596;11.070;2023-08-06T15:01:54;0.23;;;0.10;;
15358;SDS011;7779;49.596;11.070;2023-08-06T15:04:20;0.47;;;0.20;;
15358;SDS011;7779;49.596;11.070;2023-08-06T15:06:47;0.27;;;0.20;;